Bassett, WI

10:00 PM CST on December 24, 2014 (GMT -0600)
KWITWINL2 | Change Station
CLOSE
Current Station
Personal Weather Station
Location: Bassett, WI
Elevation: 849 ft
Nearby Weather Stations

Elev 849 ft 42.53 °N, 88.21 °W | Updated 10 minutes ago

Overcast
Overcast
34.5 °F
Feels Like 29 °F
N
7.0
Wind Variable Wind from WNW
Gusts 14.0 mph

Today
High -- | Low -- °F
--% Chance of Precip.
Yesterday
High -- | Low -- °F
Precip. -- in
7:20 AM 4:24 PM
Waxing Crescent, 13% visible
Pressure 29.56 in
Visibility 10.0 miles
Clouds Scattered Clouds 900 ft
Overcast 1500 ft
Windchill 29 °F
Dew Point 33 °F
Humidity 92%
Rainfall 0.00 in
Snow Depth Not available.
UV 0 out of 12
Pollen .10 out of 12
Air Quality Not available.
Flu Activity Not available.
METAR KBUU 250335Z AUTO 28010KT 10SM SCT009 OVC015 01/00 A2956 RMK AO2 T00060000

More Conditions Fewer Conditions

Pressure 29.56 in
Visibility 10.0 miles
Clouds Scattered Clouds 900 ft
Overcast 1500 ft
Windchill 29 °F
Dew Point 33 °F
Humidity 92%
Rainfall 0.00 in
Snow Depth Not available.
UV 0 out of 12
Pollen .10 out of 12
Air Quality Not available.
Flu Activity Not available.
METAR KBUU 250335Z AUTO 28010KT 10SM SCT009 OVC015 01/00 A2956 RMK AO2 T00060000

More Conditions Fewer Conditions

10-Day Weather Forecast

Almanac

Astronomy

Dec. 24, 2014 Rise Set
Actual Time
Civil Twilight
Nautical Twilight
Astronomical Twilight
Moon
Length of Visible Light
Length of Day
Tomorrow will be .
, % of the Moon is Illuminated

Today's Extremes

State Highs State Lows

Community

WunderPhotos

Upload Photos

1,780,226 photos uploaded!

WunderBlogs® & News

Nearby

Air Quality

  Air Quality AQ Index Pollutant
Not available.

Snow Depth

Station Depth Elevation

Earthquake Activity

City Distance Mag. Time & Date
Minimum magnitude displayed is 2.5.

Coastal Water Temperatures

Place Temperature

Nearby Weather Stations